Aviation Digital Data Service (ADDS)

Output produced by METARs form (1426 UTC 10 July 2020)
found at http://www.aviationweather.gov/metar/data/
 
KMCN 101353Z VRB04KT 10SM CLR 29/22 A2996 RMK AO2 SLP139 T02890222
KMCN 101127Z 1012/1112 28004KT P6SM SKC 
     FM101600 30003KT P6SM SCT050 
     FM110000 28005KT P6SM SCT050 
     FM110200 26003KT P6SM FEW250